Time;durP1;ratioP1;P1;durP2;ratioP2;P2;SDS_P1;SDS_P2;PMS_P1;PMS_P2;Temp;Humidity;BMP_temperature;BMP_pressure;BME280_temperature;BME280_humidity;BME280_pressure;Samples;Min_cycle;Max_cycle;Signal;HPM_P1;HPM_P2
2022/06/28 00:02:00;;;;;;;7.45;6.88;;;;;;;;;;5053654;28;20047;-87
2022/06/28 00:04:27;;;;;;;7.63;6.93;;;;;;;;;;5053432;28;20098;-86
2022/06/28 00:06:55;;;;;;;7.88;7.03;;;;;;;;;;5052308;28;20474;-86
2022/06/28 00:09:22;;;;;;;8.18;7.47;;;;;;;;;;5051718;28;20100;-87
2022/06/28 00:11:49;;;;;;;8.85;7.18;;;;;;;;;;5052120;28;20536;-87
2022/06/28 00:17:03;;;;;;;7.88;7.20;;;;;;;;;;5047107;28;20147;-86
2022/06/28 00:19:30;;;;;;;8.32;7.63;;;;;;;;;;5053302;28;20052;-86
2022/06/28 00:21:57;;;;;;;9.52;8.25;;;;;;;;;;5053200;28;20087;-86
2022/06/28 00:24:25;;;;;;;9.20;8.13;;;;;;;;;;5051596;28;20572;-86
2022/06/28 00:26:52;;;;;;;9.60;8.30;;;;;;;;;;5051899;28;20051;-86
2022/06/28 00:29:19;;;;;;;8.52;7.60;;;;;;;;;;5052075;28;20472;-86
2022/06/28 00:31:47;;;;;;;9.10;8.20;;;;;;;;;;5051674;28;20049;-86
2022/06/28 00:34:14;;;;;;;9.70;8.75;;;;;;;;;;5051756;28;20051;-86
2022/06/28 00:36:42;;;;;;;14.20;8.73;;;;;;;;;;5052521;28;20063;-87
2022/06/28 00:39:09;;;;;;;10.98;8.77;;;;;;;;;;5052574;28;20045;-87
2022/06/28 00:41:37;;;;;;;10.70;9.52;;;;;;;;;;5051951;28;20045;-87
2022/06/28 00:44:04;;;;;;;15.63;10.10;;;;;;;;;;5052913;28;20048;-87
2022/06/28 00:46:35;;;;;;;10.55;9.52;;;;;;;;;;5052893;28;20484;-87
2022/06/28 00:49:03;;;;;;;10.32;9.20;;;;;;;;;;5052126;28;20055;-87
2022/06/28 00:51:31;;;;;;;9.35;8.43;;;;;;;;;;5051167;28;20138;-86
2022/06/28 00:53:59;;;;;;;13.27;9.57;;;;;;;;;;5052841;28;20128;-87
2022/06/28 00:56:26;;;;;;;11.20;10.00;;;;;;;;;;5052590;28;20049;-86
2022/06/28 00:58:55;;;;;;;19.25;10.35;;;;;;;;;;5051625;28;20145;-86
2022/06/28 01:01:23;;;;;;;11.05;9.93;;;;;;;;;;5052581;28;20044;-86
2022/06/28 01:03:50;;;;;;;13.27;11.80;;;;;;;;;;5051054;28;20516;-86
2022/06/28 01:06:18;;;;;;;12.50;11.23;;;;;;;;;;5051162;28;20053;-86
2022/06/28 01:08:46;;;;;;;11.77;10.70;;;;;;;;;;5051251;28;20100;-86
2022/06/28 01:11:20;;;;;;;12.90;11.57;;;;;;;;;;5052697;28;20053;-87
2022/06/28 01:13:48;;;;;;;16.33;12.45;;;;;;;;;;5051345;28;20120;-87
2022/06/28 01:16:16;;;;;;;15.35;12.35;;;;;;;;;;5051239;28;20111;-87
2022/06/28 01:18:43;;;;;;;17.23;11.13;;;;;;;;;;5052968;28;20045;-87
2022/06/28 01:21:15;;;;;;;12.10;10.93;;;;;;;;;;5055425;28;20067;-87
2022/06/28 01:23:43;;;;;;;11.95;10.73;;;;;;;;;;5055953;28;20501;-87
2022/06/28 01:26:11;;;;;;;15.95;11.65;;;;;;;;;;5055603;28;20100;-87
2022/06/28 01:28:39;;;;;;;10.63;9.50;;;;;;;;;;5055266;28;20140;-87
2022/06/28 01:31:06;;;;;;;11.23;9.95;;;;;;;;;;5055328;28;20144;-86
2022/06/28 01:33:36;;;;;;;13.82;12.40;;;;;;;;;;5055715;28;20045;-87
2022/06/28 01:36:05;;;;;;;15.30;13.70;;;;;;;;;;5055348;28;20080;-87
2022/06/28 01:38:32;;;;;;;11.85;10.73;;;;;;;;;;5054946;28;20087;-87
2022/06/28 01:41:00;;;;;;;15.80;12.65;;;;;;;;;;5055264;28;20049;-87
2022/06/28 01:43:27;;;;;;;11.70;10.70;;;;;;;;;;5055993;28;20489;-86
2022/06/28 01:45:54;;;;;;;12.40;11.30;;;;;;;;;;5055099;28;20595;-86
2022/06/28 01:48:21;;;;;;;12.65;11.43;;;;;;;;;;5055089;28;20401;-87
2022/06/28 01:50:50;;;;;;;10.40;9.50;;;;;;;;;;5055016;28;20076;-87
2022/06/28 01:53:17;;;;;;;13.48;11.73;;;;;;;;;;5055204;28;20083;-87
2022/06/28 01:55:44;;;;;;;15.02;11.10;;;;;;;;;;5055807;28;20100;-87
2022/06/28 01:58:12;;;;;;;12.25;11.07;;;;;;;;;;5055890;28;20131;-86
2022/06/28 02:00:39;;;;;;;12.18;10.98;;;;;;;;;;5055862;28;20135;-87
2022/06/28 02:03:06;;;;;;;12.27;10.85;;;;;;;;;;5055920;28;20132;-87
2022/06/28 02:05:34;;;;;;;15.63;12.38;;;;;;;;;;5055849;28;20041;-87
2022/06/28 02:08:02;;;;;;;12.25;11.02;;;;;;;;;;5056139;28;20133;-87
2022/06/28 02:10:29;;;;;;;14.70;13.05;;;;;;;;;;5054540;28;20079;-87
2022/06/28 02:12:56;;;;;;;14.68;13.27;;;;;;;;;;5054542;28;20509;-87
2022/06/28 02:15:23;;;;;;;13.93;12.68;;;;;;;;;;5054711;28;20060;-87
2022/06/28 02:17:51;;;;;;;15.05;12.85;;;;;;;;;;5055787;28;20564;-87
2022/06/28 02:20:18;;;;;;;12.95;11.65;;;;;;;;;;5055580;28;20140;-88
2022/06/28 02:22:45;;;;;;;12.05;10.85;;;;;;;;;;5055806;28;20063;-87
2022/06/28 02:25:12;;;;;;;14.82;12.52;;;;;;;;;;5054317;28;20469;-86
2022/06/28 02:27:39;;;;;;;11.32;10.27;;;;;;;;;;5054413;28;20143;-87
2022/06/28 02:30:07;;;;;;;11.52;10.52;;;;;;;;;;5054219;28;20076;-87
2022/06/28 02:32:34;;;;;;;13.95;11.23;;;;;;;;;;5054238;28;20136;-87
2022/06/28 02:40:34;;;;;;;13.30;12.10;;;;;;;;;;5055495;28;20131;-86
2022/06/28 02:43:01;;;;;;;14.20;12.98;;;;;;;;;;5054266;28;20139;-86
2022/06/28 02:45:31;;;;;;;16.95;14.50;;;;;;;;;;5055016;28;20481;-87
2022/06/28 02:47:58;;;;;;;14.07;12.73;;;;;;;;;;5054048;28;20390;-87
2022/06/28 02:50:26;;;;;;;14.82;13.43;;;;;;;;;;5054799;28;20080;-87
2022/06/28 02:52:53;;;;;;;14.35;12.98;;;;;;;;;;5054045;28;20088;-86
2022/06/28 02:55:20;;;;;;;14.50;13.00;;;;;;;;;;5053918;28;20055;-87
2022/06/28 02:57:47;;;;;;;14.27;12.82;;;;;;;;;;5053972;28;20468;-87
2022/06/28 03:00:16;;;;;;;13.02;11.85;;;;;;;;;;5055047;28;20049;-87
2022/06/28 03:02:44;;;;;;;16.25;14.65;;;;;;;;;;5053674;28;20053;-88
2022/06/28 03:05:13;;;;;;;19.70;14.98;;;;;;;;;;5054889;28;20052;-87
2022/06/28 03:07:41;;;;;;;17.35;15.57;;;;;;;;;;5054841;28;20052;-87
2022/06/28 03:10:09;;;;;;;18.75;16.48;;;;;;;;;;5054753;28;20116;-87
2022/06/28 03:12:36;;;;;;;18.13;16.23;;;;;;;;;;5053399;28;20127;-86
2022/06/28 03:15:05;;;;;;;16.65;15.05;;;;;;;;;;5053463;28;20417;-86
2022/06/28 03:17:32;;;;;;;16.35;14.65;;;;;;;;;;5053359;28;20139;-87
2022/06/28 03:20:00;;;;;;;17.75;15.32;;;;;;;;;;5053762;28;20067;-87
2022/06/28 03:22:27;;;;;;;17.65;15.20;;;;;;;;;;5053443;28;20049;-87
2022/06/28 03:24:54;;;;;;;15.65;14.02;;;;;;;;;;5054432;28;20136;-87
2022/06/28 03:27:21;;;;;;;15.48;13.90;;;;;;;;;;5054390;28;20379;-87
2022/06/28 03:29:51;;;;;;;17.80;15.90;;;;;;;;;;5054184;28;20385;-86
2022/06/28 03:32:18;;;;;;;19.40;15.07;;;;;;;;;;5053419;28;20056;-87
2022/06/28 03:34:46;;;;;;;15.73;14.20;;;;;;;;;;5054241;28;20092;-86
2022/06/28 03:37:15;;;;;;;16.35;14.45;;;;;;;;;;5054130;28;20505;-87
2022/06/28 03:39:42;;;;;;;16.73;14.88;;;;;;;;;;5052501;28;20100;-87
2022/06/28 03:42:09;;;;;;;19.77;16.27;;;;;;;;;;5052794;28;20128;-87
2022/06/28 03:44:37;;;;;;;17.58;15.77;;;;;;;;;;5052809;28;20552;-87
2022/06/28 03:47:04;;;;;;;17.20;15.38;;;;;;;;;;5052949;28;20087;-87
2022/06/28 03:49:31;;;;;;;18.75;15.43;;;;;;;;;;5052943;28;20128;-87
2022/06/28 03:51:58;;;;;;;16.35;14.65;;;;;;;;;;5053871;28;20592;-88
2022/06/28 03:54:26;;;;;;;15.93;14.32;;;;;;;;;;5053848;28;20077;-87
2022/06/28 03:56:54;;;;;;;18.45;15.00;;;;;;;;;;5052507;28;20493;-87
2022/06/28 03:59:21;;;;;;;23.23;17.63;;;;;;;;;;5052860;28;20053;-87
2022/06/28 04:01:48;;;;;;;18.83;16.70;;;;;;;;;;5053755;28;20556;-87
2022/06/28 04:04:16;;;;;;;20.33;17.38;;;;;;;;;;5053696;28;20044;-88
2022/06/28 04:06:43;;;;;;;20.05;17.13;;;;;;;;;;5052633;28;20049;-88
2022/06/28 04:09:11;;;;;;;20.83;18.05;;;;;;;;;;5052488;28;20057;-88
2022/06/28 04:11:38;;;;;;;27.38;22.45;;;;;;;;;;5052440;28;20057;-87
2022/06/28 04:14:05;;;;;;;22.15;19.38;;;;;;;;;;5053705;28;20075;-88
2022/06/28 04:16:32;;;;;;;28.73;17.73;;;;;;;;;;5052552;28;20584;-88
2022/06/28 04:19:00;;;;;;;15.10;13.70;;;;;;;;;;5053698;28;20088;-87
2022/06/28 04:21:27;;;;;;;14.48;13.00;;;;;;;;;;5053428;28;20508;-87
2022/06/28 04:23:54;;;;;;;18.00;14.02;;;;;;;;;;5052176;28;20057;-87
2022/06/28 04:26:22;;;;;;;20.33;16.23;;;;;;;;;;5052332;28;20049;-88
2022/06/28 04:28:49;;;;;;;24.73;18.98;;;;;;;;;;5052308;28;20164;-87
2022/06/28 04:31:16;;;;;;;29.88;21.60;;;;;;;;;;5052147;28;20123;-87
2022/06/28 04:33:43;;;;;;;21.58;18.23;;;;;;;;;;5051934;28;20063;-87
2022/06/28 04:36:11;;;;;;;22.40;19.48;;;;;;;;;;5053060;28;20405;-87
2022/06/28 04:38:38;;;;;;;13.98;12.50;;;;;;;;;;5052199;28;20140;-86
2022/06/28 04:41:05;;;;;;;10.80;8.45;;;;;;;;;;5052081;28;20497;-86
2022/06/28 04:43:33;;;;;;;7.53;6.80;;;;;;;;;;5051994;28;20049;-87
2022/06/28 04:46:00;;;;;;;5.82;4.68;;;;;;;;;;5053281;28;20049;-86
2022/06/28 04:48:27;;;;;;;3.88;3.53;;;;;;;;;;5051824;28;20072;-87
2022/06/28 04:50:54;;;;;;;3.00;2.85;;;;;;;;;;5052923;28;20045;-87
2022/06/28 04:53:21;;;;;;;2.97;2.72;;;;;;;;;;5051466;28;20136;-86
2022/06/28 04:55:55;;;;;;;3.58;2.63;;;;;;;;;;5051494;28;20131;-86
2022/06/28 04:58:22;;;;;;;3.53;3.20;;;;;;;;;;5051772;28;20048;-86
2022/06/28 05:00:49;;;;;;;2.20;2.10;;;;;;;;;;5052774;28;20485;-87
2022/06/28 05:03:38;;;;;;;1.95;1.85;;;;;;;;;;5052356;28;20063;-87
2022/06/28 05:06:05;;;;;;;2.10;2.00;;;;;;;;;;5051264;28;20080;-86
2022/06/28 05:08:32;;;;;;;2.13;1.88;;;;;;;;;;5051581;28;20041;-87
2022/06/28 05:10:59;;;;;;;1.48;1.45;;;;;;;;;;5052533;28;20140;-87
2022/06/28 05:13:27;;;;;;;1.30;1.20;;;;;;;;;;5050942;28;20076;-87
2022/06/28 05:15:54;;;;;;;1.30;1.20;;;;;;;;;;5051589;28;20091;-88
2022/06/28 05:18:22;;;;;;;2.15;1.02;;;;;;;;;;5052972;28;20049;-89
2022/06/28 05:20:49;;;;;;;1.23;1.00;;;;;;;;;;5052103;28;20049;-89
2022/06/28 05:23:16;;;;;;;0.95;0.93;;;;;;;;;;5052018;28;20104;-87
2022/06/28 05:25:44;;;;;;;3.30;1.10;;;;;;;;;;5052750;28;20103;-88
2022/06/28 05:28:11;;;;;;;0.80;0.80;;;;;;;;;;5052863;28;20060;-87
2022/06/28 05:30:38;;;;;;;0.80;0.80;;;;;;;;;;5051174;28;20049;-87
2022/06/28 05:33:07;;;;;;;0.80;0.80;;;;;;;;;;5051432;28;20443;-88
2022/06/28 05:35:35;;;;;;;3.08;1.00;;;;;;;;;;5051571;28;20049;-88
2022/06/28 05:38:02;;;;;;;3.90;1.92;;;;;;;;;;5052472;28;20095;-87
2022/06/28 05:40:30;;;;;;;2.97;1.25;;;;;;;;;;5052615;28;20083;-87
2022/06/28 05:42:57;;;;;;;0.88;0.88;;;;;;;;;;5052019;28;20063;-88
2022/06/28 05:45:25;;;;;;;1.02;0.88;;;;;;;;;;5051180;28;20076;-87
2022/06/28 05:47:52;;;;;;;0.60;0.60;;;;;;;;;;5051419;28;20497;-88
2022/06/28 05:50:19;;;;;;;1.05;0.88;;;;;;;;;;5052667;28;20051;-87
2022/06/28 05:52:47;;;;;;;0.70;0.70;;;;;;;;;;5051630;28;20048;-88
2022/06/28 05:55:14;;;;;;;0.70;0.70;;;;;;;;;;5052263;28;20482;-88
2022/06/28 05:57:42;;;;;;;3.60;0.80;;;;;;;;;;5052129;28;20135;-89
2022/06/28 06:00:10;;;;;;;1.63;0.93;;;;;;;;;;5052426;28;20476;-88
2022/06/28 06:02:37;;;;;;;2.65;0.85;;;;;;;;;;5052556;28;20160;-86
2022/06/28 06:05:06;;;;;;;1.42;1.10;;;;;;;;;;5050963;28;20082;-88
2022/06/28 06:07:33;;;;;;;1.15;1.00;;;;;;;;;;5053861;28;20080;-88
2022/06/28 06:10:01;;;;;;;1.58;0.85;;;;;;;;;;5054698;28;20132;-86
2022/06/28 06:12:28;;;;;;;2.58;1.00;;;;;;;;;;5055857;28;20139;-89
2022/06/28 06:14:55;;;;;;;1.70;0.90;;;;;;;;;;5054930;28;20135;-88
2022/06/28 06:17:22;;;;;;;2.22;0.93;;;;;;;;;;5054796;28;20068;-89
2022/06/28 06:19:49;;;;;;;1.30;0.73;;;;;;;;;;5054662;28;20140;-91
2022/06/28 06:22:17;;;;;;;1.02;0.70;;;;;;;;;;5054722;28;20519;-86
2022/06/28 06:24:44;;;;;;;2.70;0.75;;;;;;;;;;5054628;28;20104;-90
2022/06/28 06:27:13;;;;;;;1.65;0.88;;;;;;;;;;5055310;28;20088;-89
2022/06/28 06:29:41;;;;;;;2.47;0.85;;;;;;;;;;5054435;28;20596;-86
2022/06/28 06:32:08;;;;;;;2.40;0.80;;;;;;;;;;5055522;28;20144;-88
2022/06/28 06:34:35;;;;;;;1.02;0.73;;;;;;;;;;5054280;28;20052;-87
2022/06/28 06:37:03;;;;;;;1.73;0.77;;;;;;;;;;5054569;28;20124;-89
2022/06/28 06:39:30;;;;;;;0.70;0.70;;;;;;;;;;5054001;28;20485;-89
2022/06/28 06:42:01;;;;;;;2.03;1.02;;;;;;;;;;5054479;28;20450;-89
2022/06/28 06:44:28;;;;;;;3.00;0.73;;;;;;;;;;5054860;28;20059;-89
2022/06/28 06:46:56;;;;;;;1.70;0.70;;;;;;;;;;5054210;28;20048;-86
2022/06/28 06:49:24;;;;;;;0.55;0.55;;;;;;;;;;5054559;28;20075;-92
2022/06/28 06:51:51;;;;;;;0.85;0.68;;;;;;;;;;5054984;28;20511;-87
2022/06/28 06:54:19;;;;;;;3.33;0.73;;;;;;;;;;5054334;28;20143;-87
2022/06/28 06:56:46;;;;;;;0.50;0.50;;;;;;;;;;5054066;28;20144;-87
2022/06/28 06:59:14;;;;;;;1.40;0.57;;;;;;;;;;5054618;28;20064;-86
2022/06/28 07:01:42;;;;;;;0.60;0.60;;;;;;;;;;5054082;28;20103;-89
2022/06/28 07:04:11;;;;;;;0.98;0.57;;;;;;;;;;5053950;28;20045;-88
2022/06/28 07:06:39;;;;;;;1.00;0.70;;;;;;;;;;5054131;28;20049;-89
2022/06/28 07:09:06;;;;;;;3.50;0.90;;;;;;;;;;5054054;28;20472;-90
2022/06/28 07:11:34;;;;;;;0.80;0.65;;;;;;;;;;5054279;28;20079;-89
2022/06/28 07:14:01;;;;;;;1.08;0.60;;;;;;;;;;5054281;28;20573;-88
2022/06/28 07:16:29;;;;;;;0.60;0.60;;;;;;;;;;5054607;28;20103;-88
2022/06/28 07:18:57;;;;;;;1.17;0.50;;;;;;;;;;5053580;28;20099;-87
2022/06/28 07:21:25;;;;;;;0.40;0.40;;;;;;;;;;5053919;28;20076;-90
2022/06/28 07:23:52;;;;;;;9.15;1.00;;;;;;;;;;5053789;28;20600;-88
2022/06/28 07:26:19;;;;;;;0.63;0.40;;;;;;;;;;5054405;28;20117;-89
2022/06/28 07:28:47;;;;;;;5.25;0.98;;;;;;;;;;5054164;28;20072;-91
2022/06/28 07:31:17;;;;;;;2.47;0.80;;;;;;;;;;5053513;28;20056;-90
2022/06/28 07:33:44;;;;;;;5.28;0.73;;;;;;;;;;5053752;28;20056;-91
2022/06/28 07:36:11;;;;;;;1.40;0.45;;;;;;;;;;5053372;28;20057;-87
2022/06/28 07:38:39;;;;;;;0.93;0.40;;;;;;;;;;5052657;28;20148;-90
2022/06/28 07:41:06;;;;;;;2.70;0.50;;;;;;;;;;5053698;28;20053;-88
2022/06/28 07:43:33;;;;;;;3.13;0.60;;;;;;;;;;5053396;28;20063;-89
2022/06/28 07:46:01;;;;;;;1.83;0.60;;;;;;;;;;5053368;28;20044;-88
2022/06/28 07:48:28;;;;;;;0.98;0.45;;;;;;;;;;5053586;28;20049;-91
2022/06/28 07:53:41;;;;;;;0.60;0.60;;;;;;;;;;5054311;28;20056;-88
2022/06/28 07:56:08;;;;;;;1.15;0.73;;;;;;;;;;5053332;28;20076;-89
2022/06/28 07:58:39;;;;;;;0.60;0.40;;;;;;;;;;5053053;28;20049;-88
2022/06/28 08:01:07;;;;;;;2.90;0.50;;;;;;;;;;5054127;28;20049;-90
2022/06/28 08:03:34;;;;;;;2.67;0.57;;;;;;;;;;5052485;28;20057;-86
2022/06/28 08:06:02;;;;;;;0.50;0.50;;;;;;;;;;5053149;28;20557;-89
2022/06/28 08:08:29;;;;;;;1.15;0.60;;;;;;;;;;5052828;28;20049;-88
2022/06/28 08:10:56;;;;;;;1.15;0.57;;;;;;;;;;5052892;28;20088;-88
2022/06/28 08:13:24;;;;;;;0.55;0.50;;;;;;;;;;5053139;28;20140;-91
2022/06/28 08:15:51;;;;;;;1.25;0.30;;;;;;;;;;5052806;28;20083;-92
2022/06/28 08:18:18;;;;;;;5.55;0.50;;;;;;;;;;5052898;28;20053;-89
2022/06/28 08:20:46;;;;;;;0.68;0.22;;;;;;;;;;5052623;28;20478;-88
2022/06/28 08:23:13;;;;;;;0.85;0.50;;;;;;;;;;5036338;28;20148;-89
2022/06/28 08:25:42;;;;;;;1.10;0.57;;;;;;;;;;5053496;28;20167;-91
2022/06/28 08:28:11;;;;;;;0.50;0.50;;;;;;;;;;5052298;28;20556;-88
2022/06/28 08:30:38;;;;;;;1.23;0.57;;;;;;;;;;5052442;28;20049;-91
2022/06/28 08:33:06;;;;;;;0.95;0.30;;;;;;;;;;5052554;28;20060;-87
2022/06/28 08:35:34;;;;;;;0.50;0.30;;;;;;;;;;5052261;28;20405;-85
2022/06/28 08:38:05;;;;;;;0.68;0.40;;;;;;;;;;5051914;28;20080;-88
2022/06/28 08:40:33;;;;;;;0.60;0.30;;;;;;;;;;5052520;28;20044;-88
2022/06/28 08:43:01;;;;;;;0.60;0.50;;;;;;;;;;5052335;28;20127;-87
2022/06/28 08:45:32;;;;;;;0.43;0.30;;;;;;;;;;5052377;28;20049;-90
2022/06/28 08:48:01;;;;;;;0.68;0.30;;;;;;;;;;5052538;28;20139;-91
2022/06/28 08:50:34;;;;;;;2.65;0.22;;;;;;;;;;5052251;28;20489;-87
2022/06/28 08:53:03;;;;;;;0.93;0.30;;;;;;;;;;5052450;28;20136;-87
2022/06/28 08:55:31;;;;;;;0.35;0.30;;;;;;;;;;5052177;28;20108;-89
2022/06/28 08:57:59;;;;;;;0.90;0.28;;;;;;;;;;5052241;28;20560;-88
2022/06/28 09:00:26;;;;;;;1.80;0.55;;;;;;;;;;5052278;28;20109;-89
2022/06/28 09:02:54;;;;;;;1.75;0.40;;;;;;;;;;5052303;28;20048;-88
2022/06/28 09:05:23;;;;;;;0.32;0.30;;;;;;;;;;5052017;28;20139;-87
2022/06/28 09:07:51;;;;;;;2.20;0.30;;;;;;;;;;5052581;28;20052;-86
2022/06/28 09:10:18;;;;;;;0.68;0.50;;;;;;;;;;5051840;28;20523;-89
2022/06/28 09:13:07;;;;;;;0.95;0.40;;;;;;;;;;5052220;28;20383;-87
2022/06/28 09:15:46;;;;;;;0.95;0.50;;;;;;;;;;5051851;28;20059;-84
2022/06/28 09:18:13;;;;;;;1.58;0.40;;;;;;;;;;5051738;28;20084;-87
2022/06/28 09:20:41;;;;;;;0.80;0.40;;;;;;;;;;5051865;28;20394;-83
2022/06/28 09:23:21;;;;;;;0.65;0.50;;;;;;;;;;5051953;28;20081;-87
2022/06/28 09:25:48;;;;;;;0.50;0.50;;;;;;;;;;5051832;28;20068;-87
2022/06/28 09:28:27;;;;;;;4.45;0.57;;;;;;;;;;5052061;28;20504;-88
2022/06/28 09:31:30;;;;;;;1.05;0.40;;;;;;;;;;5052970;28;20500;-93
2022/06/28 09:34:03;;;;;;;2.50;0.60;;;;;;;;;;4975820;28;20078;-91
2022/06/28 09:36:31;;;;;;;1.90;0.60;;;;;;;;;;5026969;28;20523;-92
2022/06/28 09:39:01;;;;;;;0.60;0.50;;;;;;;;;;5051497;28;20049;-89
2022/06/28 09:41:29;;;;;;;0.75;0.30;;;;;;;;;;5055569;28;20055;-91
2022/06/28 09:43:58;;;;;;;1.35;0.45;;;;;;;;;;5056120;28;20159;-87
2022/06/28 09:46:26;;;;;;;1.23;0.55;;;;;;;;;;5055664;28;20053;-90
2022/06/28 09:48:58;;;;;;;1.70;0.73;;;;;;;;;;5055882;28;20064;-86
2022/06/28 09:51:26;;;;;;;0.35;0.35;;;;;;;;;;5056629;28;20115;-88
2022/06/28 09:53:57;;;;;;;0.47;0.47;;;;;;;;;;5055117;28;20115;-87
2022/06/28 09:56:47;;;;;;;1.65;0.50;;;;;;;;;;5055283;28;20128;-86
2022/06/28 09:59:14;;;;;;;0.43;0.32;;;;;;;;;;5055228;28;20055;-86
2022/06/28 10:01:42;;;;;;;0.50;0.30;;;;;;;;;;5055493;28;20049;-86
2022/06/28 10:04:09;;;;;;;0.43;0.30;;;;;;;;;;5055336;28;20056;-86
2022/06/28 10:06:37;;;;;;;0.63;0.30;;;;;;;;;;5054768;28;20045;-85
2022/06/28 10:09:06;;;;;;;1.13;0.63;;;;;;;;;;5054895;28;20059;-84
2022/06/28 10:15:00;;;;;;;0.70;0.63;;;;;;;;;;5055105;28;20051;-84
2022/06/28 10:17:34;;;;;;;3.00;0.70;;;;;;;;;;5056054;28;20049;-86
2022/06/28 10:20:03;;;;;;;1.35;0.28;;;;;;;;;;5054893;28;20084;-86
2022/06/28 10:22:30;;;;;;;0.55;0.38;;;;;;;;;;5056045;28;20405;-88
2022/06/28 10:24:59;;;;;;;0.55;0.55;;;;;;;;;;5054879;28;20077;-85
2022/06/28 10:27:27;;;;;;;0.75;0.52;;;;;;;;;;5054682;28;20076;-88
2022/06/28 10:30:00;;;;;;;0.85;0.30;;;;;;;;;;5054923;28;20132;-87
2022/06/28 10:32:41;;;;;;;1.42;0.30;;;;;;;;;;5054464;28;20501;-87
2022/06/28 10:35:09;;;;;;;0.30;0.30;;;;;;;;;;5054473;28;20056;-87
2022/06/28 10:37:36;;;;;;;0.20;0.20;;;;;;;;;;5053959;28;20137;-87
2022/06/28 10:40:22;;;;;;;15.80;1.98;;;;;;;;;;5053977;28;20052;-84
2022/06/28 10:42:50;;;;;;;2.92;0.40;;;;;;;;;;5055558;28;20131;-87
2022/06/28 10:45:20;;;;;;;0.50;0.40;;;;;;;;;;5054228;28;20052;-85
2022/06/28 10:48:06;;;;;;;1.13;0.45;;;;;;;;;;5054266;28;20493;-86
2022/06/28 10:50:52;;;;;;;1.90;0.60;;;;;;;;;;5053887;28;20156;-87
2022/06/28 10:53:19;;;;;;;0.40;0.40;;;;;;;;;;5037348;28;20061;-83
2022/06/28 10:56:05;;;;;;;0.30;0.30;;;;;;;;;;5055439;28;20045;-86
2022/06/28 10:58:55;;;;;;;1.30;0.20;;;;;;;;;;5054369;28;20132;-88
2022/06/28 11:01:44;;;;;;;0.38;0.38;;;;;;;;;;5054309;28;20152;-89
2022/06/28 11:04:12;;;;;;;1.45;0.50;;;;;;;;;;5055026;28;20048;-88
2022/06/28 11:06:43;;;;;;;1.95;0.35;;;;;;;;;;5054423;28;20071;-89
2022/06/28 11:09:29;;;;;;;0.20;0.20;;;;;;;;;;5053890;28;20139;-87
2022/06/28 11:12:15;;;;;;;0.40;0.40;;;;;;;;;;5054279;28;20052;-88
2022/06/28 11:14:49;;;;;;;0.75;0.47;;;;;;;;;;5054030;28;20508;-88
2022/06/28 11:17:18;;;;;;;0.65;0.40;;;;;;;;;;5054010;28;20049;-87
2022/06/28 11:19:53;;;;;;;0.80;0.50;;;;;;;;;;5054061;28;20132;-86
2022/06/28 11:22:22;;;;;;;0.40;0.40;;;;;;;;;;5054123;28;20161;-90
2022/06/28 11:24:50;;;;;;;3.80;0.60;;;;;;;;;;5053938;28;20536;-89
2022/06/28 11:27:21;;;;;;;3.70;0.65;;;;;;;;;;5053928;28;20048;-87
2022/06/28 11:29:49;;;;;;;0.65;0.50;;;;;;;;;;5046064;28;20135;-89
2022/06/28 11:32:26;;;;;;;0.40;0.40;;;;;;;;;;5053998;28;20055;-87
2022/06/28 11:34:57;;;;;;;1.08;0.47;;;;;;;;;;5054092;28;20409;-94
2022/06/28 11:37:25;;;;;;;0.70;0.30;;;;;;;;;;5053269;28;20152;-88
2022/06/28 11:39:56;;;;;;;3.20;0.50;;;;;;;;;;5052960;28;20055;-90
2022/06/28 11:42:24;;;;;;;1.05;0.50;;;;;;;;;;5053304;28;20136;-87
2022/06/28 11:44:51;;;;;;;3.00;0.35;;;;;;;;;;5053275;28;20478;-84
2022/06/28 11:47:19;;;;;;;0.60;0.50;;;;;;;;;;5053085;28;20049;-84
2022/06/28 11:49:50;;;;;;;1.45;0.30;;;;;;;;;;5053897;28;20068;-88
2022/06/28 11:52:17;;;;;;;1.67;0.40;;;;;;;;;;5052974;28;20140;-85
2022/06/28 11:54:45;;;;;;;1.27;0.50;;;;;;;;;;5052951;28;20134;-87
2022/06/28 11:57:14;;;;;;;1.75;0.60;;;;;;;;;;5053476;28;20048;-87
2022/06/28 11:59:54;;;;;;;1.55;0.40;;;;;;;;;;5054145;28;20481;-86
2022/06/28 12:02:41;;;;;;;2.20;0.45;;;;;;;;;;5053054;28;20132;-87
2022/06/28 12:05:09;;;;;;;0.45;0.45;;;;;;;;;;5052403;28;20512;-90
2022/06/28 12:07:37;;;;;;;0.80;0.60;;;;;;;;;;5053124;28;20063;-89
2022/06/28 12:10:04;;;;;;;0.93;0.32;;;;;;;;;;5052813;28;20083;-87
2022/06/28 12:12:32;;;;;;;1.48;0.40;;;;;;;;;;5052785;28;20064;-87
2022/06/28 12:14:59;;;;;;;0.77;0.50;;;;;;;;;;5052940;28;20128;-85
2022/06/28 12:17:26;;;;;;;0.90;0.43;;;;;;;;;;5052718;28;20150;-86
2022/06/28 12:19:53;;;;;;;0.55;0.55;;;;;;;;;;5052727;28;20115;-88
2022/06/28 12:22:25;;;;;;;0.70;0.57;;;;;;;;;;5053355;28;20128;-85
2022/06/28 12:24:55;;;;;;;1.33;0.60;;;;;;;;;;5053251;28;20048;-87
2022/06/28 12:27:26;;;;;;;0.93;0.50;;;;;;;;;;5053678;28;20481;-88
2022/06/28 12:29:55;;;;;;;2.78;0.50;;;;;;;;;;5053625;28;20502;-90
2022/06/28 12:32:22;;;;;;;2.95;0.70;;;;;;;;;;5052987;28;20127;-87
2022/06/28 12:35:10;;;;;;;0.65;0.50;;;;;;;;;;5052852;28;20059;-91
2022/06/28 12:37:37;;;;;;;0.60;0.60;;;;;;;;;;5052803;28;20083;-89
2022/06/28 12:40:05;;;;;;;0.98;0.50;;;;;;;;;;5052684;28;20091;-88
2022/06/28 12:42:33;;;;;;;0.80;0.57;;;;;;;;;;5052560;28;20055;-91
2022/06/28 12:45:01;;;;;;;3.33;0.68;;;;;;;;;;5053414;28;20135;-85
2022/06/28 12:47:35;;;;;;;1.23;0.50;;;;;;;;;;5053613;28;20135;-87
2022/06/28 12:50:05;;;;;;;0.55;0.55;;;;;;;;;;5052308;28;20088;-87
2022/06/28 12:52:34;;;;;;;1.40;0.40;;;;;;;;;;5052526;28;20136;-87
2022/06/28 12:55:01;;;;;;;0.80;0.50;;;;;;;;;;5051985;28;20091;-86
2022/06/28 12:57:28;;;;;;;0.80;0.40;;;;;;;;;;5052138;28;20080;-86
2022/06/28 12:59:56;;;;;;;2.42;0.68;;;;;;;;;;5035360;28;20064;-86
2022/06/28 13:02:24;;;;;;;0.75;0.50;;;;;;;;;;5052462;28;20045;-88
2022/06/28 13:04:51;;;;;;;3.30;0.80;;;;;;;;;;5052258;28;20405;-83
2022/06/28 13:07:20;;;;;;;1.33;0.50;;;;;;;;;;5051888;28;20083;-84
2022/06/28 13:09:47;;;;;;;0.63;0.60;;;;;;;;;;5051848;28;20493;-86
2022/06/28 13:12:15;;;;;;;0.57;0.57;;;;;;;;;;5052396;28;20500;-84
2022/06/28 13:14:50;;;;;;;1.92;0.80;;;;;;;;;;5053875;28;20111;-87
2022/06/28 13:17:21;;;;;;;2.83;0.55;;;;;;;;;;5056209;28;20493;-87
2022/06/28 13:19:48;;;;;;;0.70;0.70;;;;;;;;;;5056017;28;20124;-89
2022/06/28 13:22:36;;;;;;;0.70;0.70;;;;;;;;;;5056637;28;20137;-88
2022/06/28 13:25:05;;;;;;;2.83;0.68;;;;;;;;;;5055992;28;20049;-87
2022/06/28 13:27:33;;;;;;;1.95;0.73;;;;;;;;;;5056470;28;20064;-86
2022/06/28 13:30:00;;;;;;;1.17;0.50;;;;;;;;;;5055896;28;20148;-87
2022/06/28 13:32:27;;;;;;;4.15;0.60;;;;;;;;;;5055652;28;20069;-86
2022/06/28 13:34:54;;;;;;;0.73;0.57;;;;;;;;;;5055456;28;20553;-85
2022/06/28 13:37:22;;;;;;;0.50;0.40;;;;;;;;;;5057023;28;20128;-86
2022/06/28 13:39:49;;;;;;;1.42;0.40;;;;;;;;;;5056035;28;20049;-85
2022/06/28 13:42:16;;;;;;;0.80;0.50;;;;;;;;;;5056239;28;20139;-87
2022/06/28 13:44:43;;;;;;;1.33;0.50;;;;;;;;;;5055848;28;20137;-87
2022/06/28 13:47:14;;;;;;;3.47;0.60;;;;;;;;;;5055273;28;20507;-86
2022/06/28 13:49:41;;;;;;;2.85;0.50;;;;;;;;;;5055506;28;20552;-84
2022/06/28 13:52:09;;;;;;;0.50;0.50;;;;;;;;;;5056446;28;20132;-88
2022/06/28 13:54:36;;;;;;;0.95;0.50;;;;;;;;;;5055125;28;20136;-86
2022/06/28 13:57:04;;;;;;;0.45;0.43;;;;;;;;;;5055536;28;20143;-88
2022/06/28 13:59:31;;;;;;;1.55;0.60;;;;;;;;;;5038752;28;20128;-88
2022/06/28 14:01:59;;;;;;;0.85;0.65;;;;;;;;;;5055340;28;20144;-89
2022/06/28 14:04:26;;;;;;;0.40;0.40;;;;;;;;;;5055188;28;20045;-89
2022/06/28 14:06:54;;;;;;;0.52;0.50;;;;;;;;;;5055504;28;20053;-84
2022/06/28 14:09:21;;;;;;;1.30;0.50;;;;;;;;;;5055487;28;20119;-88
2022/06/28 14:11:48;;;;;;;0.63;0.60;;;;;;;;;;5055138;28;20053;-86
2022/06/28 14:14:16;;;;;;;1.63;0.75;;;;;;;;;;5054813;28;20056;-86
2022/06/28 14:16:43;;;;;;;3.80;0.70;;;;;;;;;;5054922;28;20505;-87
2022/06/28 14:19:11;;;;;;;0.40;0.40;;;;;;;;;;5054937;28;20044;-85
2022/06/28 14:21:38;;;;;;;0.32;0.32;;;;;;;;;;5054686;28;20140;-86
2022/06/28 14:24:05;;;;;;;0.95;0.60;;;;;;;;;;5054708;28;20056;-88
2022/06/28 14:26:33;;;;;;;1.27;0.50;;;;;;;;;;5053348;28;20075;-88
2022/06/28 14:29:00;;;;;;;0.82;0.50;;;;;;;;;;5054508;28;20112;-87
2022/06/28 14:31:28;;;;;;;0.80;0.50;;;;;;;;;;5054690;28;20494;-88
2022/06/28 14:34:14;;;;;;;0.98;0.70;;;;;;;;;;5054396;28;20044;-87
2022/06/28 14:36:43;;;;;;;0.50;0.50;;;;;;;;;;5054332;28;20060;-86
2022/06/28 14:39:12;;;;;;;3.30;0.60;;;;;;;;;;5053610;28;20651;-86
2022/06/28 14:41:40;;;;;;;0.50;0.50;;;;;;;;;;5055053;28;20059;-87
2022/06/28 14:44:07;;;;;;;1.70;0.68;;;;;;;;;;5054288;28;20140;-88
2022/06/28 14:46:35;;;;;;;1.80;0.50;;;;;;;;;;5054015;28;20127;-87
2022/06/28 14:49:02;;;;;;;0.68;0.50;;;;;;;;;;5055244;28;20123;-91
2022/06/28 14:51:30;;;;;;;0.55;0.55;;;;;;;;;;5053949;28;20473;-87
2022/06/28 14:53:58;;;;;;;0.50;0.50;;;;;;;;;;5054298;28;20053;-89
2022/06/28 14:56:25;;;;;;;1.25;1.02;;;;;;;;;;5053911;28;20060;-86
2022/06/28 14:58:53;;;;;;;1.48;0.70;;;;;;;;;;5054039;28;20084;-87
2022/06/28 15:01:21;;;;;;;2.90;0.68;;;;;;;;;;5053984;28;20052;-88